Time;durP1;ratioP1;P1;durP2;ratioP2;P2;SDS_P1;SDS_P2;PMS_P1;PMS_P2;Temp;Humidity;BMP_temperature;BMP_pressure;BME280_temperature;BME280_humidity;BME280_pressure;Samples;Min_cycle;Max_cycle;Signal;HPM_P1;HPM_P2
2022/03/14 02:22:50;;;;;;;33.13;16.13;;;;;;;2.10;100.00;95428.88;5642933;23;20410;-88
2022/03/14 02:25:16;;;;;;;26.75;15.38;;;;;;;2.18;100.00;95424.56;4959286;29;20035;-88
2022/03/14 02:27:41;;;;;;;31.38;15.25;;;;;;;2.29;100.00;95425.84;4936324;29;20039;-88
2022/03/14 02:30:07;;;;;;;31.25;14.45;;;;;;;2.53;100.00;95433.16;4937136;29;20031;-88
2022/03/14 02:32:33;;;;;;;30.48;14.77;;;;;;;2.37;100.00;95431.66;4941578;29;20030;-89
2022/03/14 02:34:58;;;;;;;32.55;15.77;;;;;;;2.36;100.00;95431.84;4941928;29;20507;-89
2022/03/14 02:37:24;;;;;;;28.63;13.85;;;;;;;2.52;100.00;95441.91;4942293;29;20120;-88
2022/03/14 02:39:50;;;;;;;26.55;14.23;;;;;;;2.46;100.00;95436.72;4941805;29;20031;-88
2022/03/14 02:42:15;;;;;;;28.08;14.98;;;;;;;2.30;100.00;95425.66;4926086;29;20031;-88
2022/03/14 02:44:43;;;;;;;25.73;14.00;;;;;;;2.31;100.00;95429.84;4942380;29;20038;-88
2022/03/14 02:47:11;;;;;;;23.02;12.88;;;;;;;2.58;100.00;95429.19;4926668;29;20426;-91
2022/03/14 02:49:37;;;;;;;25.02;13.18;;;;;;;2.49;100.00;95431.16;4956032;29;20182;-91
2022/03/14 02:52:03;;;;;;;25.05;13.98;;;;;;;2.50;100.00;95437.91;4941662;29;20347;-88
2022/03/14 02:54:28;;;;;;;25.63;13.50;;;;;;;2.58;100.00;95435.16;4957972;29;20114;-91
2022/03/14 02:56:54;;;;;;;25.65;12.73;;;;;;;2.65;100.00;95441.19;4941766;29;20035;-88
2022/03/14 02:59:20;;;;;;;27.42;13.93;;;;;;;2.44;100.00;95446.41;4941038;29;20031;-90
2022/03/14 03:01:46;;;;;;;32.58;15.07;;;;;;;2.36;100.00;95444.78;4941240;29;20053;-88
2022/03/14 03:04:11;;;;;;;29.75;14.52;;;;;;;2.20;100.00;95451.03;4958775;29;20031;-88
2022/03/14 03:06:37;;;;;;;29.05;14.45;;;;;;;2.16;100.00;95458.38;4941184;29;20061;-88
2022/03/14 03:09:03;;;;;;;26.95;14.35;;;;;;;2.19;100.00;95464.97;4941901;29;20444;-88
2022/03/14 03:11:30;;;;;;;29.05;13.80;;;;;;;2.34;100.00;95472.63;4942800;29;20119;-88
2022/03/14 03:13:56;;;;;;;25.40;13.02;;;;;;;2.50;100.00;95479.31;4938335;29;20032;-88
2022/03/14 03:16:22;;;;;;;24.85;13.60;;;;;;;2.61;100.00;95473.63;4922731;29;20066;-88
2022/03/14 03:18:48;;;;;;;27.73;14.30;;;;;;;2.62;100.00;95472.63;4939292;29;20070;-88
2022/03/14 03:21:16;;;;;;;30.05;14.55;;;;;;;2.64;100.00;95469.84;4938835;29;20036;-90
2022/03/14 03:23:42;;;;;;;27.13;15.00;;;;;;;2.76;100.00;95483.06;4922512;29;20071;-88
2022/03/14 03:26:07;;;;;;;27.42;14.98;;;;;;;2.79;100.00;95480.09;4922428;29;20063;-90
2022/03/14 03:28:37;;;;;;;28.17;14.93;;;;;;;2.76;100.00;95481.25;4938384;29;20031;-90
2022/03/14 03:31:07;;;;;;;30.75;14.77;;;;;;;2.66;100.00;95489.38;4921574;29;20031;-90
2022/03/14 03:33:33;;;;;;;28.58;14.98;;;;;;;2.59;100.00;95483.38;4922262;29;20042;-89
2022/03/14 03:35:59;;;;;;;29.17;14.43;;;;;;;2.56;100.00;95488.88;4939377;29;20031;-88
2022/03/14 03:38:24;;;;;;;27.80;15.40;;;;;;;2.48;100.00;95482.06;4938439;29;20039;-90
2022/03/14 03:40:50;;;;;;;25.73;13.82;;;;;;;2.40;100.00;95487.41;4921558;29;20032;-90
2022/03/14 03:43:16;;;;;;;31.15;15.55;;;;;;;2.31;100.00;95494.50;4937969;29;20342;-90
2022/03/14 03:45:41;;;;;;;27.23;14.85;;;;;;;2.23;100.00;95499.78;4953875;29;20036;-90
2022/03/14 03:48:07;;;;;;;25.45;14.52;;;;;;;2.34;100.00;95494.13;4937921;29;20039;-90
2022/03/14 03:50:32;;;;;;;27.25;14.98;;;;;;;2.39;100.00;95493.56;4937084;29;20051;-88
2022/03/14 03:52:57;;;;;;;27.05;14.50;;;;;;;2.23;100.00;95494.63;4939140;29;20039;-90
2022/03/14 03:55:24;;;;;;;28.30;15.02;;;;;;;2.15;100.00;95497.31;4939053;29;20460;-90
2022/03/14 03:57:49;;;;;;;26.58;13.85;;;;;;;2.22;100.00;95498.19;4939014;29;20038;-90
2022/03/14 04:00:15;;;;;;;25.30;13.25;;;;;;;1.96;100.00;95502.13;4934799;29;20039;-90
2022/03/14 04:02:42;;;;;;;29.95;14.80;;;;;;;1.94;100.00;95499.75;4921527;29;20032;-90
2022/03/14 04:05:09;;;;;;;28.13;15.50;;;;;;;1.90;100.00;95508.84;4937809;29;20035;-89
2022/03/14 04:07:35;;;;;;;25.50;14.13;;;;;;;1.82;100.00;95509.75;4922039;29;20056;-90
2022/03/14 04:10:03;;;;;;;25.88;14.30;;;;;;;1.84;100.00;95518.13;4921550;29;20041;-90
2022/03/14 04:12:28;;;;;;;25.88;14.35;;;;;;;1.96;100.00;95525.41;4910197;29;20035;-90
2022/03/14 04:14:56;;;;;;;26.58;13.75;;;;;;;2.03;100.00;95523.69;4925623;29;20436;-89
2022/03/14 04:17:25;;;;;;;28.73;14.65;;;;;;;1.92;100.00;95530.13;4910112;29;20500;-88
2022/03/14 04:19:57;;;;;;;27.63;14.52;;;;;;;1.89;100.00;95532.31;4925647;29;20031;-90
2022/03/14 04:22:22;;;;;;;31.77;14.32;;;;;;;1.94;100.00;95527.38;4925531;29;20036;-90
2022/03/14 04:24:48;;;;;;;23.15;12.50;;;;;;;2.20;100.00;95539.75;4925738;29;20090;-90
2022/03/14 04:27:14;;;;;;;30.02;14.18;;;;;;;2.16;100.00;95537.75;4925323;29;20089;-90
2022/03/14 04:29:40;;;;;;;23.25;13.45;;;;;;;2.01;100.00;95537.78;4941753;29;20087;-89
2022/03/14 04:32:06;;;;;;;25.98;13.10;;;;;;;2.01;100.00;95541.19;4909749;29;20031;-90
2022/03/14 04:34:32;;;;;;;21.63;13.27;;;;;;;2.30;100.00;95542.03;4909770;29;20035;-89
2022/03/14 04:36:58;;;;;;;28.55;14.15;;;;;;;2.29;100.00;95544.81;4909940;29;20038;-90
2022/03/14 04:39:23;;;;;;;24.85;12.98;;;;;;;2.42;100.00;95551.88;4940769;29;20110;-90
2022/03/14 04:41:49;;;;;;;27.83;12.80;;;;;;;2.36;100.00;95545.66;4909309;29;20031;-89
2022/03/14 04:44:16;;;;;;;25.08;14.10;;;;;;;2.23;100.00;95556.69;4909590;29;20114;-89
2022/03/14 04:46:42;;;;;;;25.73;12.82;;;;;;;2.35;100.00;95562.16;4940924;29;20035;-89
2022/03/14 04:49:08;;;;;;;27.70;14.63;;;;;;;2.10;100.00;95552.97;4925159;29;20575;-90
2022/03/14 04:51:34;;;;;;;29.15;13.38;;;;;;;2.23;100.00;95556.69;4924482;29;20027;-89
2022/03/14 04:54:00;;;;;;;24.52;13.52;;;;;;;2.15;100.00;95561.97;4909254;29;20039;-90
2022/03/14 04:56:27;;;;;;;26.83;14.05;;;;;;;2.09;100.00;95563.53;4909281;29;20031;-89
2022/03/14 04:58:52;;;;;;;25.35;14.35;;;;;;;2.11;100.00;95564.94;4925044;29;20070;-90
2022/03/14 05:01:22;;;;;;;26.02;14.23;;;;;;;1.92;100.00;95570.69;4939922;29;20064;-90
2022/03/14 05:03:47;;;;;;;24.67;13.43;;;;;;;1.79;100.00;95581.69;4941506;29;20024;-88
2022/03/14 05:06:13;;;;;;;27.33;14.18;;;;;;;1.68;100.00;95583.75;4924761;29;20420;-90
2022/03/14 05:08:38;;;;;;;28.80;14.48;;;;;;;1.64;100.00;95582.50;4924397;29;20028;-90
2022/03/14 05:11:04;;;;;;;31.33;14.07;;;;;;;1.59;100.00;95578.88;4939479;29;20042;-90
2022/03/14 05:13:30;;;;;;;27.73;12.63;;;;;;;1.57;100.00;95583.41;4924501;29;20086;-88
2022/03/14 05:15:56;;;;;;;26.00;13.40;;;;;;;1.57;100.00;95588.56;4940677;29;20053;-90
2022/03/14 05:18:21;;;;;;;24.08;13.13;;;;;;;1.72;100.00;95588.56;4941091;29;20437;-89
2022/03/14 05:20:47;;;;;;;25.13;13.25;;;;;;;2.10;100.00;95596.94;4924428;29;20034;-87
2022/03/14 05:23:12;;;;;;;30.08;13.55;;;;;;;2.34;100.00;95600.16;4923522;29;20032;-89
2022/03/14 05:25:38;;;;;;;25.63;13.77;;;;;;;2.39;100.00;95602.19;4939963;29;20402;-89
2022/03/14 05:28:03;;;;;;;23.67;13.18;;;;;;;2.28;100.00;95607.84;4924454;29;20388;-88
2022/03/14 05:30:29;;;;;;;26.63;14.02;;;;;;;1.94;100.00;95603.16;4924194;29;20425;-88
2022/03/14 05:32:55;;;;;;;28.35;12.38;;;;;;;2.13;100.00;95606.13;4908635;29;20116;-89
2022/03/14 05:35:21;;;;;;;24.92;13.00;;;;;;;1.85;100.00;95611.97;4924351;29;20095;-89
2022/03/14 05:37:47;;;;;;;31.83;14.73;;;;;;;2.00;100.00;95622.28;4908344;29;20031;-88
2022/03/14 05:40:15;;;;;;;25.40;13.30;;;;;;;2.13;100.00;95621.63;4923502;29;20142;-89
2022/03/14 05:42:42;;;;;;;27.13;13.82;;;;;;;2.27;100.00;95622.56;4908673;29;20067;-90
2022/03/14 05:45:08;;;;;;;26.50;13.07;;;;;;;2.06;100.00;95628.50;4908328;29;20036;-90
2022/03/14 05:47:35;;;;;;;26.90;13.40;;;;;;;1.89;100.00;95628.72;4934119;29;20031;-90
2022/03/14 05:50:01;;;;;;;28.02;14.00;;;;;;;1.87;100.00;95624.72;4926584;29;20400;-90
2022/03/14 05:52:27;;;;;;;24.20;13.32;;;;;;;1.91;100.00;95637.09;4958570;29;20322;-88
2022/03/14 05:54:52;;;;;;;26.50;14.30;;;;;;;2.02;100.00;95638.44;4958688;29;20038;-89
2022/03/14 05:57:18;;;;;;;25.08;13.27;;;;;;;2.34;100.00;95630.38;4942719;29;20031;-89
2022/03/14 05:59:43;;;;;;;24.75;13.30;;;;;;;2.11;100.00;95632.16;4926740;29;20425;-90
2022/03/14 06:02:10;;;;;;;22.80;13.27;;;;;;;2.20;100.00;95640.59;4926756;29;20031;-89
2022/03/14 06:04:37;;;;;;;25.67;13.15;;;;;;;2.50;100.00;95647.47;4942992;29;20309;-90
2022/03/14 06:07:03;;;;;;;25.90;13.25;;;;;;;2.41;100.00;95644.19;4958584;29;20031;-88
2022/03/14 06:09:29;;;;;;;24.15;13.52;;;;;;;2.68;100.00;95647.84;4926637;29;20031;-89
2022/03/14 06:11:55;;;;;;;24.48;12.95;;;;;;;2.47;100.00;95656.38;4926674;29;20046;-87
2022/03/14 06:14:20;;;;;;;24.45;12.52;;;;;;;2.62;100.00;95653.75;4942621;29;20027;-88
2022/03/14 06:16:46;;;;;;;22.95;12.90;;;;;;;2.63;100.00;95650.19;4942531;29;20031;-87
2022/03/14 06:19:11;;;;;;;27.48;12.50;;;;;;;2.36;100.00;95654.28;4958465;29;20027;-86
2022/03/14 06:21:38;;;;;;;23.15;12.68;;;;;;;2.28;100.00;95657.00;4926078;29;20027;-87
2022/03/14 06:24:08;;;;;;;24.85;13.20;;;;;;;2.56;100.00;95671.81;4926853;29;20031;-89
2022/03/14 06:26:34;;;;;;;23.25;12.60;;;;;;;2.60;100.00;95670.44;4942527;29;20126;-89
2022/03/14 06:29:10;;;;;;;42.00;13.70;;;;;;;2.74;100.00;95673.97;4958303;29;20420;-88
2022/03/14 06:31:36;;;;;;;26.60;13.25;;;;;;;2.77;100.00;95673.59;4959146;29;20050;-89
2022/03/14 06:34:02;;;;;;;26.38;13.15;;;;;;;2.74;100.00;95682.53;4941249;29;20035;-87
2022/03/14 06:36:28;;;;;;;22.20;12.23;;;;;;;3.16;100.00;95687.88;4942358;29;20332;-88
2022/03/14 06:38:57;;;;;;;21.85;12.38;;;;;;;3.35;100.00;95683.81;4926467;29;20114;-88
2022/03/14 06:41:23;;;;;;;22.13;12.38;;;;;;;3.17;100.00;95694.66;4957525;29;20058;-88
2022/03/14 06:43:49;;;;;;;25.63;14.10;;;;;;;2.99;100.00;95691.69;4942300;29;20023;-89
2022/03/14 06:46:15;;;;;;;23.48;12.98;;;;;;;3.12;100.00;95704.75;4925896;29;20086;-89
2022/03/14 06:48:41;;;;;;;25.50;12.38;;;;;;;3.19;100.00;95704.81;4958045;29;20023;-89
2022/03/14 06:51:07;;;;;;;24.95;13.15;;;;;;;3.37;100.00;95699.19;4941677;29;20089;-89
2022/03/14 06:53:32;;;;;;;24.25;12.02;;;;;;;3.23;100.00;95711.25;4957849;29;20023;-89
2022/03/14 06:55:58;;;;;;;23.17;12.10;;;;;;;3.28;100.00;95708.06;4958360;29;20022;-88
2022/03/14 06:58:25;;;;;;;22.88;12.55;;;;;;;3.56;100.00;95710.66;4942330;29;20031;-89
2022/03/14 07:00:51;;;;;;;26.23;13.57;;;;;;;3.41;100.00;95707.38;4941394;29;20038;-89
2022/03/14 07:03:16;;;;;;;26.45;13.48;;;;;;;3.86;100.00;95709.63;4941547;29;20053;-89
2022/03/14 07:05:42;;;;;;;26.73;14.40;;;;;;;3.70;100.00;95710.75;4941684;29;20027;-89
2022/03/14 07:08:10;;;;;;;23.38;13.25;;;;;;;4.06;100.00;95704.53;4941527;29;20039;-89
2022/03/14 07:10:36;;;;;;;22.15;12.95;;;;;;;3.92;100.00;95704.47;4957373;29;20110;-87
2022/03/14 07:13:01;;;;;;;22.67;12.18;;;;;;;4.19;100.00;95703.81;4957491;29;20038;-89
2022/03/14 07:15:27;;;;;;;28.08;14.05;;;;;;;3.88;100.00;95710.28;4957630;29;20027;-87
2022/03/14 07:17:53;;;;;;;25.65;15.02;;;;;;;4.42;100.00;95710.47;4957753;29;20432;-89
2022/03/14 07:20:19;;;;;;;21.35;12.30;;;;;;;4.52;100.00;95709.13;4941610;29;20028;-89
2022/03/14 07:22:53;;;;;;;26.13;12.43;;;;;;;4.95;100.00;95705.41;4941707;29;20062;-89
2022/03/14 07:25:22;;;;;;;;;;;;;;;5.00;100.00;95710.00;4958844;29;20031;-89
2022/03/14 07:27:49;;;;;;;25.02;13.60;;;;;;;4.99;100.00;95707.59;4958008;29;19953;-90
2022/03/14 07:30:14;;;;;;;27.25;12.23;;;;;;;5.32;100.00;95706.84;4941021;29;20126;-89
2022/03/14 07:32:40;;;;;;;35.80;17.08;;;;;;;4.90;100.00;95710.41;4957454;29;20413;-88
2022/03/14 07:35:06;;;;;;;25.80;14.68;;;;;;;4.92;100.00;95713.59;4941965;29;20031;-88
2022/03/14 07:37:32;;;;;;;31.17;13.52;;;;;;;5.04;100.00;95721.59;4957557;29;20426;-89
2022/03/14 07:39:57;;;;;;;24.00;13.25;;;;;;;5.41;100.00;95720.44;4941518;29;20027;-89
2022/03/14 07:42:24;;;;;;;25.15;12.93;;;;;;;5.46;100.00;95721.44;4941647;29;20313;-89
2022/03/14 07:44:49;;;;;;;20.23;12.38;;;;;;;5.62;100.00;95716.81;4957609;28;20425;-89
2022/03/14 07:47:15;;;;;;;23.65;12.57;;;;;;;5.38;100.00;95725.03;4945378;29;20027;-89
2022/03/14 07:49:41;;;;;;;22.52;12.13;;;;;;;5.66;100.00;95731.00;4960642;29;20097;-89
2022/03/14 07:52:07;;;;;;;25.80;13.18;;;;;;;5.87;100.00;95744.75;4945304;29;20027;-89
2022/03/14 07:54:33;;;;;;;22.77;12.32;;;;;;;5.85;100.00;95749.38;4945208;29;20037;-89
2022/03/14 07:56:59;;;;;;;20.40;12.20;;;;;;;5.94;100.00;95753.38;4961316;29;20031;-89
2022/03/14 07:59:24;;;;;;;25.52;12.68;;;;;;;6.07;100.00;95758.56;4962135;29;20086;-88
2022/03/14 08:01:50;;;;;;;21.60;12.70;;;;;;;6.38;100.00;95755.47;4961407;29;20031;-89
2022/03/14 08:04:15;;;;;;;25.45;12.57;;;;;;;6.62;100.00;95753.97;4960797;29;20078;-88
2022/03/14 08:06:43;;;;;;;22.77;12.65;;;;;;;6.83;93.61;95752.88;4944821;29;20042;-89
2022/03/14 08:09:09;;;;;;;23.75;13.00;;;;;;;6.77;95.81;95751.91;4960858;29;20055;-89
2022/03/14 08:11:35;;;;;;;25.55;14.02;;;;;;;5.97;100.00;95767.78;4944352;29;20135;-89
2022/03/14 08:14:02;;;;;;;25.63;14.18;;;;;;;6.31;100.00;95763.31;4944583;29;20031;-89
2022/03/14 08:16:28;;;;;;;22.67;13.50;;;;;;;7.14;100.00;95772.13;4960667;29;20027;-89
2022/03/14 08:18:53;;;;;;;21.73;13.75;;;;;;;6.82;100.00;95779.16;4944946;29;20041;-89
2022/03/14 08:21:19;;;;;;;22.73;13.70;;;;;;;6.46;100.00;95795.09;4960152;29;20066;-89
2022/03/14 08:23:45;;;;;;;29.58;14.20;;;;;;;6.53;100.00;95786.44;4960631;29;20447;-89
2022/03/14 08:26:11;;;;;;;28.23;14.50;;;;;;;6.58;100.00;95791.84;4960410;29;20054;-90
2022/03/14 08:28:37;;;;;;;24.95;13.73;;;;;;;7.28;96.67;95795.50;4960153;29;20374;-89
2022/03/14 08:31:03;;;;;;;25.30;13.70;;;;;;;7.64;90.51;95799.28;4944197;29;20482;-89
2022/03/14 08:33:29;;;;;;;25.50;13.23;;;;;;;7.89;83.50;95795.84;4961184;29;20035;-88
2022/03/14 08:35:59;;;;;;;20.25;12.18;;;;;;;8.16;80.95;95803.44;4960805;29;20027;-89
2022/03/14 08:38:25;;;;;;;32.30;13.40;;;;;;;7.39;89.30;95807.88;4944397;29;20050;-89
2022/03/14 08:40:50;;;;;;;24.15;12.82;;;;;;;8.40;82.50;95816.66;4943981;29;20031;-89
2022/03/14 08:43:16;;;;;;;24.52;12.23;;;;;;;8.64;82.13;95809.78;4960218;29;20027;-89
2022/03/14 08:45:43;;;;;;;19.70;12.63;;;;;;;8.61;80.98;95818.06;4944064;29;20038;-87
2022/03/14 08:48:11;;;;;;;26.63;13.77;;;;;;;8.27;80.66;95818.38;4960980;29;20050;-89
2022/03/14 08:50:38;;;;;;;20.15;12.05;;;;;;;7.96;83.23;95816.66;4943845;29;20130;-88
2022/03/14 08:53:03;;;;;;;22.30;12.30;;;;;;;8.03;84.79;95813.00;4959979;29;20038;-89
2022/03/14 08:55:29;;;;;;;24.58;12.48;;;;;;;8.49;78.85;95810.91;4961053;29;20035;-87
2022/03/14 08:57:54;;;;;;;25.15;13.68;;;;;;;8.31;77.98;95814.31;4958854;28;20352;-86
2022/03/14 09:00:25;;;;;;;20.70;12.30;;;;;;;8.36;82.38;95811.06;4959227;29;20031;-87
2022/03/14 09:02:51;;;;;;;21.40;13.00;;;;;;;8.33;82.63;95812.31;4943767;29;20038;-87
2022/03/14 09:05:17;;;;;;;22.85;12.00;;;;;;;8.63;78.24;95816.84;4959881;29;20133;-87
2022/03/14 09:07:43;;;;;;;23.10;12.40;;;;;;;8.90;78.74;95818.34;4943997;29;20035;-86
2022/03/14 09:10:13;;;;;;;20.80;11.52;;;;;;;8.07;82.23;95819.38;4943119;29;20398;-88
2022/03/14 09:12:39;;;;;;;20.50;12.15;;;;;;;8.77;79.70;95832.38;4943630;29;20071;-88
2022/03/14 09:15:06;;;;;;;19.38;11.27;;;;;;;9.02;77.35;95837.47;4959866;29;20058;-87
2022/03/14 09:17:32;;;;;;;22.02;12.05;;;;;;;8.94;72.77;95837.78;4943470;29;20043;-87
2022/03/14 09:19:58;;;;;;;25.10;12.05;;;;;;;8.85;72.97;95839.09;4959011;29;20208;-87
2022/03/14 09:22:24;;;;;;;20.70;12.52;;;;;;;8.78;71.62;95839.19;4959378;29;20035;-87
2022/03/14 09:24:51;;;;;;;27.40;12.48;;;;;;;8.86;71.40;95844.09;4959390;29;20332;-87
2022/03/14 09:27:16;;;;;;;22.23;12.65;;;;;;;9.69;67.49;95838.38;4943589;29;20424;-87
2022/03/14 09:29:42;;;;;;;27.70;12.55;;;;;;;8.84;68.35;95837.53;4958921;29;20031;-88
2022/03/14 09:32:08;;;;;;;28.73;12.48;;;;;;;8.63;71.39;95832.53;4959351;29;20031;-88
2022/03/14 09:34:36;;;;;;;22.55;12.80;;;;;;;8.25;79.06;95850.94;4959192;29;20122;-89
2022/03/14 09:37:02;;;;;;;24.60;12.68;;;;;;;8.62;73.56;95851.81;4958910;29;20129;-88
2022/03/14 09:39:27;;;;;;;22.23;11.90;;;;;;;9.29;71.08;95852.81;4927818;29;20408;-87
2022/03/14 09:41:53;;;;;;;22.33;11.93;;;;;;;9.07;70.50;95842.06;4959809;29;20027;-88
2022/03/14 09:44:20;;;;;;;21.75;12.88;;;;;;;9.27;70.69;95852.25;4927580;29;20023;-89
2022/03/14 09:46:47;;;;;;;20.08;11.40;;;;;;;9.89;66.69;95855.56;4943058;29;20038;-87
2022/03/14 09:49:14;;;;;;;24.42;11.43;;;;;;;9.49;69.89;95856.97;4943193;29;20027;-90
2022/03/14 09:51:41;;;;;;;22.25;12.20;;;;;;;9.90;73.09;95859.81;4959658;29;20033;-89
2022/03/14 09:54:09;;;;;;;25.25;13.15;;;;;;;9.84;70.19;95860.69;4959076;29;20035;-88
2022/03/14 09:56:34;;;;;;;28.10;13.18;;;;;;;9.92;69.64;95856.97;4958917;29;20416;-88
2022/03/14 09:59:21;;;;;;;24.58;12.80;;;;;;;10.50;68.00;95846.75;4922620;29;20094;-87
2022/03/14 10:01:47;;;;;;;21.15;12.48;;;;;;;9.55;67.40;95840.41;4923525;29;20063;-86
2022/03/14 10:04:13;;;;;;;23.13;12.98;;;;;;;9.25;67.81;95835.19;4923214;29;20055;-88
2022/03/14 10:06:39;;;;;;;22.08;13.32;;;;;;;9.26;70.04;95842.00;4939537;29;20032;-89
2022/03/14 10:09:05;;;;;;;27.90;14.02;;;;;;;8.34;74.45;95834.00;4939253;29;20032;-89
2022/03/14 10:11:31;;;;;;;26.20;14.35;;;;;;;9.36;71.42;95833.63;4939048;29;20043;-89
2022/03/14 10:13:56;;;;;;;22.92;13.27;;;;;;;8.93;76.96;95840.63;4939298;29;20031;-89
2022/03/14 10:16:22;;;;;;;27.52;13.88;;;;;;;9.30;69.97;95843.97;4939353;29;20082;-87
2022/03/14 10:18:55;;;;;;;23.45;13.25;;;;;;;8.89;71.29;95845.50;4939238;29;20036;-89
2022/03/14 10:21:33;;;;;;;25.17;14.25;;;;;;;9.51;74.63;95841.84;4938852;29;20055;-88
2022/03/14 10:24:00;;;;;;;28.33;13.98;;;;;;;10.19;74.22;95850.25;4939077;29;20039;-88
2022/03/14 10:26:25;;;;;;;24.02;14.30;;;;;;;9.90;71.23;95839.66;4939404;29;20166;-89
2022/03/14 10:28:55;;;;;;;24.73;13.63;;;;;;;10.15;72.54;95841.28;4923521;29;20086;-89
2022/03/14 10:31:31;;;;;;;26.00;13.18;;;;;;;9.86;76.35;95837.72;4938605;29;20039;-89
2022/03/14 10:34:18;;;;;;;26.42;13.07;;;;;;;9.79;70.21;95843.06;4939040;29;20063;-88
2022/03/14 10:36:46;;;;;;;24.33;13.90;;;;;;;9.69;73.76;95841.00;4939051;29;20121;-89
2022/03/14 10:39:18;;;;;;;24.38;13.75;;;;;;;9.58;70.55;95849.59;4939809;29;20087;-88
2022/03/14 10:42:05;;;;;;;23.52;12.55;;;;;;;9.81;79.27;95848.06;4923168;29;20036;-89
2022/03/14 10:44:31;;;;;;;22.35;12.02;;;;;;;10.37;71.58;95853.00;4939704;29;20397;-88
2022/03/14 10:46:58;;;;;;;20.13;11.95;;;;;;;10.45;70.42;95861.34;4938901;29;20092;-89
2022/03/14 10:49:28;;;;;;;20.48;11.77;;;;;;;10.45;67.45;95863.16;4923113;29;20035;-88
2022/03/14 10:51:56;;;;;;;23.20;12.30;;;;;;;10.66;71.98;95859.13;4938390;29;20037;-85
2022/03/14 10:54:22;;;;;;;23.35;12.77;;;;;;;11.20;63.38;95849.44;4922708;29;20075;-88
2022/03/14 10:57:09;;;;;;;26.13;12.73;;;;;;;11.56;66.14;95836.94;4938619;29;20089;-89
2022/03/14 10:59:41;;;;;;;21.80;11.27;;;;;;;10.64;65.04;95839.44;4939824;29;20085;-89
2022/03/14 11:02:12;;;;;;;23.33;11.25;;;;;;;11.13;65.99;95834.63;4938580;29;20039;-89
2022/03/14 11:04:54;;;;;;;26.73;12.15;;;;;;;10.70;66.16;95826.22;4939765;29;20035;-89
2022/03/14 11:07:31;;;;;;;19.77;11.60;;;;;;;10.45;69.48;95840.38;4923253;29;20126;-88
2022/03/14 11:09:58;;;;;;;20.00;10.63;;;;;;;11.20;65.42;95850.22;4938193;29;20361;-88
2022/03/14 11:12:29;;;;;;;22.65;11.45;;;;;;;11.05;65.12;95858.63;4938263;29;20032;-88
2022/03/14 11:15:00;;;;;;;24.55;11.98;;;;;;;10.03;68.68;95851.72;4922700;29;20035;-86
2022/03/14 11:17:31;;;;;;;23.88;11.43;;;;;;;9.70;71.34;95845.19;4939286;29;20035;-88
2022/03/14 11:19:58;;;;;;;21.30;11.55;;;;;;;9.53;73.40;95842.41;4939207;29;20074;-86
2022/03/14 11:22:26;;;;;;;29.52;12.02;;;;;;;10.33;71.12;95844.78;4945513;29;20361;-88
2022/03/14 11:24:53;;;;;;;24.52;12.60;;;;;;;10.18;69.84;95838.19;4928815;29;20038;-88
2022/03/14 11:27:27;;;;;;;20.00;11.45;;;;;;;10.99;70.34;95836.72;4944722;29;20425;-89
2022/03/14 11:29:54;;;;;;;23.05;11.30;;;;;;;11.17;66.54;95832.34;4944107;29;20038;-88
2022/03/14 11:32:21;;;;;;;20.10;10.82;;;;;;;11.55;65.93;95830.09;4944706;29;20035;-88
2022/03/14 11:34:47;;;;;;;21.60;11.10;;;;;;;11.80;63.53;95836.81;4945787;29;20477;-89
2022/03/14 11:37:14;;;;;;;20.25;11.38;;;;;;;11.20;68.34;95825.81;4927992;29;20380;-89
2022/03/14 11:39:41;;;;;;;22.75;11.10;;;;;;;11.80;67.83;95813.97;4928570;29;20347;-86
2022/03/14 11:42:08;;;;;;;21.98;11.27;;;;;;;11.34;63.45;95813.22;4945549;29;20031;-88
2022/03/14 11:44:35;;;;;;;22.30;11.60;;;;;;;11.12;65.78;95814.66;4944660;29;20344;-88
2022/03/14 11:47:00;;;;;;;20.10;11.73;;;;;;;10.33;66.69;95808.13;4949444;29;20035;-90
2022/03/14 11:49:27;;;;;;;21.17;10.52;;;;;;;11.31;68.23;95806.59;4944314;29;20035;-90
2022/03/14 11:52:10;;;;;;;23.85;11.82;;;;;;;11.76;64.64;95804.16;4927932;29;20035;-89
2022/03/14 11:54:41;;;;;;;22.42;12.13;;;;;;;10.99;68.13;95796.59;4945308;29;20036;-89
2022/03/14 11:57:07;;;;;;;18.92;11.07;;;;;;;11.31;67.11;95794.28;4928432;29;20039;-89
2022/03/14 11:59:35;;;;;;;20.27;11.30;;;;;;;12.68;65.62;95793.38;4944462;29;20039;-89
2022/03/14 12:02:02;;;;;;;23.05;11.32;;;;;;;11.83;60.06;95799.56;4944069;29;20118;-87
2022/03/14 12:04:35;;;;;;;17.02;11.02;;;;;;;12.60;57.79;95791.97;4944587;29;20118;-89
2022/03/14 12:07:06;;;;;;;21.02;11.13;;;;;;;12.89;58.89;95785.69;4928464;29;20038;-89
2022/03/14 12:09:34;;;;;;;25.35;11.00;;;;;;;12.54;57.24;95772.69;4912622;29;20038;-89
2022/03/14 12:12:12;;;;;;;18.02;11.45;;;;;;;11.77;60.53;95775.06;4928004;29;20429;-88
2022/03/14 12:14:45;;;;;;;21.33;11.65;;;;;;;11.24;61.49;95770.00;4945492;29;20150;-86
2022/03/14 12:17:14;;;;;;;22.75;11.45;;;;;;;10.82;63.06;95770.31;4928350;29;20036;-88
2022/03/14 12:19:55;;;;;;;25.40;12.00;;;;;;;11.00;63.62;95764.09;4945092;29;20124;-86
2022/03/14 12:22:29;;;;;;;24.55;12.32;;;;;;;10.29;65.04;95760.63;4912424;29;20078;-90
2022/03/14 12:24:59;;;;;;;20.23;11.68;;;;;;;10.83;68.60;95762.22;4945133;29;20031;-88
2022/03/14 12:27:31;;;;;;;22.42;11.50;;;;;;;10.58;67.67;95773.81;4928307;29;20392;-88
2022/03/14 12:29:58;;;;;;;22.17;11.45;;;;;;;10.91;68.21;95774.16;4945491;29;20461;-86
2022/03/14 12:32:27;;;;;;;27.55;13.05;;;;;;;11.25;71.50;95781.31;4942403;29;20032;-86
2022/03/14 12:35:12;;;;;;;25.52;12.05;;;;;;;11.78;64.36;95778.50;4941989;29;20054;-89
2022/03/14 12:37:47;;;;;;;21.67;12.30;;;;;;;11.35;64.05;95778.06;4925154;29;20031;-86
2022/03/14 12:40:19;;;;;;;23.77;11.02;;;;;;;12.14;67.69;95781.66;4924742;29;20035;-89
2022/03/14 12:42:46;;;;;;;23.90;11.68;;;;;;;11.96;67.23;95775.59;4925155;29;20094;-89
2022/03/14 12:45:26;;;;;;;24.33;11.85;;;;;;;11.97;62.75;95769.31;4941199;29;20422;-88
2022/03/14 12:47:58;;;;;;;19.80;11.07;;;;;;;11.67;62.28;95761.75;4940756;29;20041;-86
2022/03/14 12:50:42;;;;;;;26.48;12.77;;;;;;;10.62;65.83;95773.38;4941335;29;20031;-85
2022/03/14 12:53:08;;;;;;;23.70;12.75;;;;;;;10.96;71.03;95766.38;4924893;29;20456;-89
2022/03/14 12:55:34;;;;;;;25.23;11.80;;;;;;;10.83;71.00;95767.47;4924635;29;20032;-89
2022/03/14 12:58:01;;;;;;;22.35;12.77;;;;;;;10.98;76.80;95768.78;4960254;29;20035;-86
2022/03/14 13:00:26;;;;;;;26.85;11.88;;;;;;;11.38;73.46;95773.13;4943417;29;20035;-89
2022/03/14 13:02:52;;;;;;;22.73;12.20;;;;;;;12.28;65.10;95769.75;4944131;29;20094;-89
2022/03/14 13:05:20;;;;;;;19.52;11.73;;;;;;;12.00;65.74;95768.81;4959722;29;20054;-89
2022/03/14 13:08:12;;;;;;;23.45;11.07;;;;;;;11.64;65.03;95765.69;4943656;29;20039;-86
2022/03/14 13:10:39;;;;;;;30.05;11.20;;;;;;;11.51;68.19;95766.00;4923588;29;20066;-89
2022/03/14 13:13:06;;;;;;;23.02;11.13;;;;;;;11.90;66.85;95768.66;4943646;29;20384;-90
2022/03/14 13:15:32;;;;;;;20.98;11.18;;;;;;;12.00;62.80;95773.28;4943434;29;20058;-86
2022/03/14 13:17:57;;;;;;;22.77;11.40;;;;;;;12.23;62.93;95768.88;4960447;29;20035;-89
2022/03/14 13:20:26;;;;;;;22.77;12.27;;;;;;;11.53;64.74;95766.56;4959380;29;20031;-89
2022/03/14 13:22:51;;;;;;;24.20;11.52;;;;;;;11.35;67.54;95762.31;4943395;29;20097;-89
2022/03/14 13:25:50;;;;;;;24.33;11.60;;;;;;;11.64;68.43;95763.06;4927677;29;20062;-88
2022/03/14 13:28:29;;;;;;;26.15;11.95;;;;;;;11.79;69.25;95759.84;4912650;29;20035;-87
2022/03/14 13:30:56;;;;;;;24.65;12.48;;;;;;;11.96;66.51;95754.59;4926993;29;20102;-90
2022/03/14 13:33:31;;;;;;;21.67;12.40;;;;;;;11.35;66.22;95763.13;4943302;29;20042;-89
2022/03/14 13:35:59;;;;;;;21.52;12.05;;;;;;;10.81;69.77;95776.59;4927337;29;20035;-89
2022/03/14 13:38:46;;;;;;;21.15;12.93;;;;;;;10.80;68.61;95780.22;4943396;29;20037;-90
2022/03/14 13:41:17;;;;;;;24.60;13.43;;;;;;;10.36;70.97;95772.81;4942656;29;20057;-89
2022/03/14 13:43:53;;;;;;;23.90;13.10;;;;;;;10.97;69.45;95770.59;4927013;29;20062;-88